Time;durP1;ratioP1;P1;durP2;ratioP2;P2;SDS_P1;SDS_P2;PMS_P1;PMS_P2;Temp;Humidity;BMP_temperature;BMP_pressure;BME280_temperature;BME280_humidity;BME280_pressure;Samples;Min_cycle;Max_cycle;Signal;HPM_P1;HPM_P2
2022/10/04 00:01:20;;;;;;;15.20;5.43;;;;;;;;;;4984911;28;89314;-76
2022/10/04 00:03:59;;;;;;;12.60;5.45;;;;;;;;;;4987864;28;90498;-76
2022/10/04 00:06:26;;;;;;;18.77;6.22;;;;;;;;;;4969719;28;90001;-76
2022/10/04 00:08:55;;;;;;;13.45;5.72;;;;;;;;;;4980967;28;89013;-73
2022/10/04 00:11:23;;;;;;;12.32;4.95;;;;;;;;;;4976318;28;89033;-76
2022/10/04 00:13:51;;;;;;;18.65;6.15;;;;;;;;;;4981172;28;88184;-74
2022/10/04 00:16:20;;;;;;;17.52;6.07;;;;;;;;;;4978656;28;88206;-74
2022/10/04 00:18:46;;;;;;;19.30;7.00;;;;;;;;;;4977594;28;88634;-75
2022/10/04 00:21:13;;;;;;;21.15;6.78;;;;;;;;;;4993054;28;89006;-76
2022/10/04 00:23:41;;;;;;;12.20;5.88;;;;;;;;;;4991723;28;89269;-76
2022/10/04 00:26:33;;;;;;;12.93;7.00;;;;;;;;;;4968336;28;90303;-75
2022/10/04 00:29:20;;;;;;;17.73;7.28;;;;;;;;;;4983074;28;88080;-77
2022/10/04 00:32:05;;;;;;;14.98;6.63;;;;;;;;;;4993268;28;88800;-76
2022/10/04 00:34:31;;;;;;;20.92;7.35;;;;;;;;;;4983991;28;89343;-75
2022/10/04 00:36:57;;;;;;;16.33;7.60;;;;;;;;;;4986110;28;88047;-76
2022/10/04 00:39:25;;;;;;;28.33;7.80;;;;;;;;;;4984600;28;88772;-76
2022/10/04 00:41:51;;;;;;;24.13;8.63;;;;;;;;;;4979280;28;88122;-76
2022/10/04 00:44:22;;;;;;;20.85;8.38;;;;;;;;;;4984066;28;89461;-76
2022/10/04 00:46:49;;;;;;;13.73;7.55;;;;;;;;;;4987741;28;88982;-76
2022/10/04 00:49:18;;;;;;;18.95;8.52;;;;;;;;;;4983289;28;88329;-76
2022/10/04 00:52:06;;;;;;;17.88;7.72;;;;;;;;;;4978227;28;88934;-75
2022/10/04 00:54:35;;;;;;;16.20;7.38;;;;;;;;;;4969705;28;89134;-76
2022/10/04 00:57:06;;;;;;;20.80;8.63;;;;;;;;;;4988208;28;89854;-76
2022/10/04 00:59:32;;;;;;;;;;;;;;;;;;4980623;28;89585;-76
2022/10/04 01:02:15;;;;;;;21.70;8.30;;;;;;;;;;4984044;28;119611;-76
2022/10/04 01:04:50;;;;;;;22.50;8.82;;;;;;;;;;4983141;28;89963;-75
2022/10/04 01:07:21;;;;;;;17.38;8.25;;;;;;;;;;4982789;28;88037;-76
2022/10/04 01:09:52;;;;;;;20.80;8.15;;;;;;;;;;4995221;28;87901;-75
2022/10/04 01:12:35;;;;;;;20.23;7.57;;;;;;;;;;4990982;28;88445;-76
2022/10/04 01:15:06;;;;;;;25.73;8.70;;;;;;;;;;4975783;28;89042;-75
2022/10/04 01:17:32;;;;;;;17.80;7.82;;;;;;;;;;4976369;28;88977;-76
2022/10/04 01:19:58;;;;;;;19.27;8.32;;;;;;;;;;4976202;28;89458;-76
2022/10/04 01:22:32;;;;;;;16.70;7.88;;;;;;;;;;4980613;28;89376;-76
2022/10/04 01:24:58;;;;;;;21.80;7.75;;;;;;;;;;5000896;28;88051;-76
2022/10/04 01:27:41;;;;;;;23.30;8.10;;;;;;;;;;4994977;28;89038;-76
2022/10/04 01:30:15;;;;;;;20.38;7.80;;;;;;;;;;4976510;28;88048;-76
2022/10/04 01:32:42;;;;;;;20.13;7.88;;;;;;;;;;4977352;28;88232;-76
2022/10/04 01:35:12;;;;;;;20.02;8.27;;;;;;;;;;4980093;28;89375;-76
2022/10/04 01:37:38;;;;;;;22.65;8.88;;;;;;;;;;4987153;28;89576;-71
2022/10/04 01:40:05;;;;;;;25.38;8.63;;;;;;;;;;4981543;28;89862;-73
2022/10/04 01:42:35;;;;;;;19.23;9.18;;;;;;;;;;4983585;28;90738;-76
2022/10/04 01:45:01;;;;;;;16.83;8.63;;;;;;;;;;4997431;28;88236;-75
2022/10/04 01:47:37;;;;;;;19.08;9.00;;;;;;;;;;4980570;28;88856;-75
2022/10/04 01:50:10;;;;;;;25.05;8.68;;;;;;;;;;4980960;28;90050;-76
2022/10/04 01:52:47;;;;;;;19.00;8.27;;;;;;;;;;4977017;28;88879;-76
2022/10/04 01:55:15;;;;;;;16.33;8.30;;;;;;;;;;4991757;28;90143;-75
2022/10/04 01:57:47;;;;;;;16.48;8.50;;;;;;;;;;4977379;28;88950;-76
2022/10/04 02:00:14;;;;;;;26.58;9.10;;;;;;;;;;4976920;28;89887;-76
2022/10/04 02:02:45;;;;;;;17.67;8.43;;;;;;;;;;4983421;28;90386;-76
2022/10/04 02:05:14;;;;;;;16.40;7.93;;;;;;;;;;4982665;28;88062;-76
2022/10/04 02:07:41;;;;;;;21.25;8.68;;;;;;;;;;4976093;28;88799;-75
2022/10/04 02:10:09;;;;;;;20.23;8.45;;;;;;;;;;4989618;28;88909;-74
2022/10/04 02:12:37;;;;;;;16.63;8.18;;;;;;;;;;4976484;28;89859;-76
2022/10/04 02:15:06;;;;;;;21.85;9.00;;;;;;;;;;4978662;28;88967;-77
2022/10/04 02:17:36;;;;;;;21.13;9.35;;;;;;;;;;4980505;28;89053;-76
2022/10/04 02:20:08;;;;;;;20.30;9.48;;;;;;;;;;4975406;28;90158;-76
2022/10/04 02:22:34;;;;;;;22.52;9.27;;;;;;;;;;4977434;28;89393;-76
2022/10/04 02:25:01;;;;;;;25.02;9.43;;;;;;;;;;4977366;28;87837;-76
2022/10/04 02:27:28;;;;;;;23.38;9.55;;;;;;;;;;4968848;28;89011;-75
2022/10/04 02:30:09;;;;;;;22.05;8.50;;;;;;;;;;4976759;28;88074;-75
2022/10/04 02:35:21;;;;;;;20.63;8.10;;;;;;;;;;4976776;28;88743;-76
2022/10/04 02:37:51;;;;;;;18.75;8.02;;;;;;;;;;4975148;28;89547;-76
2022/10/04 02:40:21;;;;;;;14.00;8.70;;;;;;;;;;4987550;28;88853;-76
2022/10/04 02:42:59;;;;;;;17.48;8.27;;;;;;;;;;4983104;28;89941;-76
2022/10/04 02:45:36;;;;;;;15.40;8.77;;;;;;;;;;4987011;28;88184;-76
2022/10/04 02:48:10;;;;;;;23.17;8.90;;;;;;;;;;4978802;28;88825;-76
2022/10/04 02:50:40;;;;;;;16.88;8.15;;;;;;;;;;4977055;28;88301;-76
2022/10/04 02:53:25;;;;;;;21.50;8.27;;;;;;;;;;4971828;28;88848;-75
2022/10/04 02:55:53;;;;;;;22.35;9.10;;;;;;;;;;4965145;28;89975;-74
2022/10/04 02:58:21;;;;;;;18.58;8.65;;;;;;;;;;4984205;28;88831;-75
2022/10/04 03:00:49;;;;;;;15.60;8.43;;;;;;;;;;4978548;28;89520;-76
2022/10/04 03:03:18;;;;;;;21.27;9.27;;;;;;;;;;4988547;28;88980;-75
2022/10/04 03:05:51;;;;;;;13.90;8.48;;;;;;;;;;4986083;28;88541;-76
2022/10/04 03:08:17;;;;;;;19.15;9.02;;;;;;;;;;4987068;28;88755;-76
2022/10/04 03:10:44;;;;;;;19.33;9.40;;;;;;;;;;4976004;28;89098;-76
2022/10/04 03:13:11;;;;;;;21.65;9.40;;;;;;;;;;4977041;28;88026;-76
2022/10/04 03:15:38;;;;;;;17.52;8.80;;;;;;;;;;4978703;28;89868;-76
2022/10/04 03:18:05;;;;;;;19.55;9.15;;;;;;;;;;4980675;28;88973;-76
2022/10/04 03:20:34;;;;;;;28.30;9.30;;;;;;;;;;4979683;28;88016;-76
2022/10/04 03:23:01;;;;;;;14.77;9.07;;;;;;;;;;4982749;28;90746;-76
2022/10/04 03:25:29;;;;;;;18.33;8.90;;;;;;;;;;4991637;28;88780;-73
2022/10/04 03:27:59;;;;;;;13.68;8.43;;;;;;;;;;4991809;28;88813;-75
2022/10/04 03:30:26;;;;;;;24.27;8.93;;;;;;;;;;4991469;28;89040;-76
2022/10/04 03:32:52;;;;;;;17.30;8.52;;;;;;;;;;4985792;28;88865;-76
2022/10/04 03:35:31;;;;;;;16.98;8.85;;;;;;;;;;4977021;28;88977;-75
2022/10/04 03:37:57;;;;;;;14.88;9.07;;;;;;;;;;4979660;28;89990;-74
2022/10/04 03:40:26;;;;;;;21.58;9.00;;;;;;;;;;4990061;28;89873;-76
2022/10/04 03:42:53;;;;;;;16.55;8.38;;;;;;;;;;4981120;28;89048;-76
2022/10/04 03:45:20;;;;;;;20.88;8.98;;;;;;;;;;4993837;28;88052;-76
2022/10/04 03:47:48;;;;;;;18.67;8.98;;;;;;;;;;4973703;28;88744;-76
2022/10/04 03:50:18;;;;;;;18.58;9.13;;;;;;;;;;4977763;28;89141;-76
2022/10/04 03:52:49;;;;;;;14.10;8.38;;;;;;;;;;4980495;28;88016;-75
2022/10/04 03:55:16;;;;;;;13.90;8.15;;;;;;;;;;4978525;28;89852;-77
2022/10/04 03:57:42;;;;;;;16.73;9.43;;;;;;;;;;4984926;28;89053;-76
2022/10/04 04:00:13;;;;;;;18.83;9.30;;;;;;;;;;5000814;28;88032;-76
2022/10/04 04:02:45;;;;;;;14.00;8.30;;;;;;;;;;4974860;28;89039;-76
2022/10/04 04:05:23;;;;;;;18.30;8.52;;;;;;;;;;4982255;28;87989;-76
2022/10/04 04:07:58;;;;;;;15.20;8.75;;;;;;;;;;4977853;28;88042;-76
2022/10/04 04:10:29;;;;;;;19.30;8.45;;;;;;;;;;4997188;28;89971;-77
2022/10/04 04:12:58;;;;;;;19.25;9.18;;;;;;;;;;4979726;28;89091;-76
2022/10/04 04:15:30;;;;;;;22.42;9.80;;;;;;;;;;4989408;28;89549;-76
2022/10/04 04:17:59;;;;;;;24.77;8.38;;;;;;;;;;4978101;28;89957;-76
2022/10/04 04:20:25;;;;;;;18.98;8.45;;;;;;;;;;4986640;28;91243;-76
2022/10/04 04:22:57;;;;;;;18.10;9.50;;;;;;;;;;4981992;28;88998;-77
2022/10/04 04:25:25;;;;;;;20.73;8.75;;;;;;;;;;4998671;28;88253;-77
2022/10/04 04:27:52;;;;;;;17.92;8.90;;;;;;;;;;4974769;28;89066;-76
2022/10/04 04:30:19;;;;;;;17.50;9.05;;;;;;;;;;4983229;28;88606;-76
2022/10/04 04:32:48;;;;;;;14.40;8.52;;;;;;;;;;4982639;28;88368;-76
2022/10/04 04:35:21;;;;;;;17.00;9.50;;;;;;;;;;4981731;28;89891;-75
2022/10/04 04:38:01;;;;;;;17.80;8.88;;;;;;;;;;4988250;28;89995;-75
2022/10/04 04:40:27;;;;;;;12.73;7.50;;;;;;;;;;4987394;28;89243;-75
2022/10/04 04:42:56;;;;;;;16.30;9.48;;;;;;;;;;4981475;28;88944;-74
2022/10/04 04:45:24;;;;;;;14.40;9.00;;;;;;;;;;4979992;28;88908;-75
2022/10/04 04:47:52;;;;;;;16.00;8.68;;;;;;;;;;4978850;28;89130;-76
2022/10/04 04:50:19;;;;;;;20.08;8.25;;;;;;;;;;4985380;28;90112;-76
2022/10/04 04:52:49;;;;;;;15.32;9.40;;;;;;;;;;4980389;28;88247;-76
2022/10/04 04:55:36;;;;;;;16.85;9.07;;;;;;;;;;4982656;28;89941;-76
2022/10/04 04:58:25;;;;;;;24.10;10.02;;;;;;;;;;4979739;28;91462;-76
2022/10/04 05:00:57;;;;;;;18.20;10.30;;;;;;;;;;4988497;28;89099;-76
2022/10/04 05:03:23;;;;;;;18.45;9.60;;;;;;;;;;4992952;28;90938;-76
2022/10/04 05:05:50;;;;;;;19.02;9.50;;;;;;;;;;4981663;28;88955;-76
2022/10/04 05:08:21;;;;;;;18.85;10.30;;;;;;;;;;4983162;28;89913;-75
2022/10/04 05:10:47;;;;;;;;;;;;;;;;;;4994043;28;89079;-76
2022/10/04 05:13:15;;;;;;;18.20;9.73;;;;;;;;;;4978990;28;120686;-76
2022/10/04 05:15:42;;;;;;;14.00;9.18;;;;;;;;;;4975947;28;89880;-76
2022/10/04 05:18:31;;;;;;;22.10;9.30;;;;;;;;;;4981645;28;88986;-75
2022/10/04 05:21:11;;;;;;;17.23;9.85;;;;;;;;;;4974182;28;89066;-75
2022/10/04 05:23:37;;;;;;;17.70;8.93;;;;;;;;;;4993062;28;88095;-75
2022/10/04 05:26:08;;;;;;;21.50;9.85;;;;;;;;;;4992913;28;90118;-76
2022/10/04 05:28:35;;;;;;;21.75;11.13;;;;;;;;;;4994375;28;89650;-76
2022/10/04 05:31:10;;;;;;;19.30;10.63;;;;;;;;;;4969947;28;89850;-75
2022/10/04 05:33:39;;;;;;;17.35;10.05;;;;;;;;;;4989585;28;90050;-76
2022/10/04 05:36:08;;;;;;;19.88;11.23;;;;;;;;;;4990338;28;89658;-76
2022/10/04 05:38:39;;;;;;;18.33;10.10;;;;;;;;;;4982990;28;90130;-76
2022/10/04 05:41:14;;;;;;;20.67;10.05;;;;;;;;;;4984976;28;90025;-76
2022/10/04 05:43:44;;;;;;;18.65;9.25;;;;;;;;;;4982031;28;89564;-76
2022/10/04 05:46:19;;;;;;;20.90;9.27;;;;;;;;;;4982474;28;88266;-77
2022/10/04 05:48:49;;;;;;;18.58;10.13;;;;;;;;;;4986478;28;88036;-75
2022/10/04 05:51:29;;;;;;;18.70;10.20;;;;;;;;;;4989541;28;89587;-72
2022/10/04 05:53:56;;;;;;;20.67;9.60;;;;;;;;;;4986146;28;90018;-76
2022/10/04 05:56:25;;;;;;;15.15;9.20;;;;;;;;;;4982792;28;90576;-76
2022/10/04 05:59:15;;;;;;;16.35;9.20;;;;;;;;;;4984789;28;89016;-76
2022/10/04 06:01:47;;;;;;;15.63;10.45;;;;;;;;;;4976140;28;88928;-74
2022/10/04 06:04:26;;;;;;;23.08;11.35;;;;;;;;;;4980753;28;89667;-76
2022/10/04 06:06:54;;;;;;;20.08;10.25;;;;;;;;;;4983822;28;89472;-76
2022/10/04 06:09:39;;;;;;;26.52;10.80;;;;;;;;;;4976741;28;91174;-76
2022/10/04 06:12:12;;;;;;;26.25;9.93;;;;;;;;;;4990082;28;90915;-76
2022/10/04 06:14:57;;;;;;;22.80;10.55;;;;;;;;;;4977995;28;89334;-76
2022/10/04 06:17:46;;;;;;;20.45;10.07;;;;;;;;;;4968202;28;89782;-75
2022/10/04 06:20:31;;;;;;;14.85;10.32;;;;;;;;;;4974358;28;90195;-76
2022/10/04 06:22:59;;;;;;;19.70;10.10;;;;;;;;;;4971790;28;91337;-77
2022/10/04 06:25:27;;;;;;;20.55;10.25;;;;;;;;;;4988185;28;89537;-76
2022/10/04 06:28:11;;;;;;;15.50;10.75;;;;;;;;;;4972126;28;89445;-75
2022/10/04 06:30:51;;;;;;;18.17;10.43;;;;;;;;;;4976403;28;90470;-76
2022/10/04 06:33:28;;;;;;;23.33;10.85;;;;;;;;;;4979256;28;89393;-74
2022/10/04 06:36:13;;;;;;;18.73;9.80;;;;;;;;;;4993757;28;88987;-75
2022/10/04 06:38:58;;;;;;;23.13;10.48;;;;;;;;;;4976455;28;88777;-77
2022/10/04 06:41:45;;;;;;;21.33;10.63;;;;;;;;;;4962832;28;89578;-76
2022/10/04 06:44:35;;;;;;;24.13;11.77;;;;;;;;;;4975912;28;90397;-74
2022/10/04 06:47:07;;;;;;;18.73;10.43;;;;;;;;;;4975380;28;89134;-76
2022/10/04 06:49:45;;;;;;;20.88;10.35;;;;;;;;;;4975387;28;90164;-76
2022/10/04 06:52:20;;;;;;;18.35;10.85;;;;;;;;;;4976585;28;91100;-75
2022/10/04 06:54:47;;;;;;;18.98;10.40;;;;;;;;;;4976845;28;90525;-76
2022/10/04 06:57:31;;;;;;;17.02;9.98;;;;;;;;;;4978977;28;89044;-73
2022/10/04 07:00:07;;;;;;;17.85;10.90;;;;;;;;;;4978722;28;90365;-75
2022/10/04 07:02:40;;;;;;;21.35;10.60;;;;;;;;;;4975332;28;90041;-71
2022/10/04 07:05:32;;;;;;;26.90;12.05;;;;;;;;;;4980226;28;91251;-74
2022/10/04 07:08:05;;;;;;;25.38;11.93;;;;;;;;;;4969090;28;89508;-74
2022/10/04 07:10:34;;;;;;;24.15;10.77;;;;;;;;;;4995500;28;88926;-75
2022/10/04 07:13:01;;;;;;;25.42;11.32;;;;;;;;;;4984526;28;89099;-75
2022/10/04 07:15:29;;;;;;;22.20;11.35;;;;;;;;;;4973299;28;91605;-75
2022/10/04 07:17:57;;;;;;;28.02;11.82;;;;;;;;;;4971013;28;89124;-74
2022/10/04 07:20:30;;;;;;;23.92;10.27;;;;;;;;;;4972526;28;90074;-74
2022/10/04 07:22:58;;;;;;;18.08;10.35;;;;;;;;;;4977140;28;89810;-75
2022/10/04 07:25:29;;;;;;;19.27;10.63;;;;;;;;;;4976075;28;91133;-76
2022/10/04 07:31:02;;;;;;;20.73;10.32;;;;;;;;;;4996731;28;88997;-76
2022/10/04 07:33:30;;;;;;;24.02;10.55;;;;;;;;;;4986894;28;90015;-76
2022/10/04 07:36:12;;;;;;;31.30;10.98;;;;;;;;;;4979370;28;90696;-77
2022/10/04 07:38:45;;;;;;;23.52;9.77;;;;;;;;;;4978230;28;89748;-76
2022/10/04 07:41:17;;;;;;;19.10;10.32;;;;;;;;;;4979701;28;90113;-75
2022/10/04 07:44:04;;;;;;;18.58;10.30;;;;;;;;;;4977259;28;90826;-74
2022/10/04 07:46:36;;;;;;;19.25;10.60;;;;;;;;;;4979219;28;89144;-75
2022/10/04 07:49:03;;;;;;;26.35;11.10;;;;;;;;;;4979361;28;89751;-77
2022/10/04 07:51:35;;;;;;;19.70;10.15;;;;;;;;;;4978133;28;89057;-75
2022/10/04 07:54:22;;;;;;;18.83;10.10;;;;;;;;;;4980920;28;91078;-76
2022/10/04 07:56:58;;;;;;;18.60;10.63;;;;;;;;;;4967151;28;89623;-74
2022/10/04 07:59:34;;;;;;;22.33;9.57;;;;;;;;;;4978836;28;89015;-73
2022/10/04 08:02:12;;;;;;;23.42;10.48;;;;;;;;;;4979268;28;90000;-74
2022/10/04 08:04:44;;;;;;;18.13;9.52;;;;;;;;;;4977625;28;89533;-74
2022/10/04 08:07:20;;;;;;;26.13;10.43;;;;;;;;;;4978900;28;90031;-74
2022/10/04 08:09:59;;;;;;;22.38;9.25;;;;;;;;;;4982716;28;88921;-73
2022/10/04 08:12:29;;;;;;;16.67;8.60;;;;;;;;;;4977990;28;89578;-73
2022/10/04 08:14:56;;;;;;;15.55;9.00;;;;;;;;;;4976790;28;89594;-74
2022/10/04 08:17:40;;;;;;;20.70;8.80;;;;;;;;;;4984625;28;88848;-76
2022/10/04 08:20:18;;;;;;;21.02;9.32;;;;;;;;;;4968318;28;89760;-74
2022/10/04 08:23:06;;;;;;;13.38;7.40;;;;;;;;;;4974134;28;88956;-76
2022/10/04 08:25:33;;;;;;;17.73;7.88;;;;;;;;;;4976200;28;88077;-74
2022/10/04 08:30:57;;;;;;;15.68;8.07;;;;;;;;;;4981684;28;90129;-74
2022/10/04 08:33:30;;;;;;;17.67;7.93;;;;;;;;;;4990577;28;91052;-75
2022/10/04 08:35:59;;;;;;;15.65;8.68;;;;;;;;;;4987259;28;88025;-73
2022/10/04 08:38:33;;;;;;;22.85;7.75;;;;;;;;;;4964249;28;89899;-74
2022/10/04 08:41:20;;;;;;;22.35;7.82;;;;;;;;;;4972992;28;89028;-74
2022/10/04 08:43:49;;;;;;;18.92;8.73;;;;;;;;;;4975142;28;88952;-72
2022/10/04 08:46:34;;;;;;;14.38;7.97;;;;;;;;;;4974654;28;90170;-76
2022/10/04 08:49:01;;;;;;;14.48;7.63;;;;;;;;;;4981036;28;88496;-74
2022/10/04 08:51:51;;;;;;;12.25;7.15;;;;;;;;;;4974294;28;88177;-74
2022/10/04 08:54:18;;;;;;;;;;;;;;;;;;4945522;28;88765;-74
2022/10/04 08:56:44;;;;;;;17.83;7.25;;;;;;;;;;4959704;28;118945;-74
2022/10/04 08:59:31;;;;;;;19.23;7.88;;;;;;;;;;4959716;28;90804;-74
2022/10/04 09:01:58;;;;;;;12.10;6.78;;;;;;;;;;4968258;28;90884;-74
2022/10/04 09:04:39;;;;;;;14.68;7.50;;;;;;;;;;4978830;28;88026;-75
2022/10/04 09:07:08;;;;;;;17.83;7.97;;;;;;;;;;4976603;28;88809;-74
2022/10/04 09:10:01;;;;;;;14.43;7.85;;;;;;;;;;4983660;28;88982;-76
2022/10/04 09:12:34;;;;;;;14.40;7.35;;;;;;;;;;4975166;28;88101;-75
2022/10/04 09:15:13;;;;;;;11.25;6.95;;;;;;;;;;4981278;28;88850;-73
2022/10/04 09:17:46;;;;;;;13.68;6.85;;;;;;;;;;4979809;28;90046;-72
2022/10/04 09:20:12;;;;;;;22.13;7.82;;;;;;;;;;4983655;28;88800;-73
2022/10/04 09:23:19;;;;;;;17.83;6.90;;;;;;;;;;4978083;28;89422;-73
2022/10/04 09:25:47;;;;;;;25.02;7.75;;;;;;;;;;4977274;28;88067;-73
2022/10/04 09:28:19;;;;;;;10.00;6.20;;;;;;;;;;4977366;28;89869;-73
2022/10/04 09:30:53;;;;;;;15.20;7.20;;;;;;;;;;4978469;28;88986;-73
2022/10/04 09:33:24;;;;;;;14.77;6.97;;;;;;;;;;4965380;28;87998;-73
2022/10/04 09:35:53;;;;;;;11.30;6.20;;;;;;;;;;4978678;28;89233;-72
2022/10/04 09:38:26;;;;;;;20.10;6.93;;;;;;;;;;4992284;28;90081;-72
2022/10/04 09:41:00;;;;;;;11.57;6.05;;;;;;;;;;5001645;28;87840;-72
2022/10/04 09:43:45;;;;;;;12.75;6.85;;;;;;;;;;4985257;28;90071;-72
2022/10/04 09:46:30;;;;;;;15.43;7.10;;;;;;;;;;4976603;28;88121;-72
2022/10/04 09:48:56;;;;;;;15.35;7.03;;;;;;;;;;4972136;28;88935;-72
2022/10/04 09:51:28;;;;;;;14.18;6.43;;;;;;;;;;4978252;28;88828;-72
2022/10/04 09:54:05;;;;;;;16.10;7.57;;;;;;;;;;4976989;28;88413;-73
2022/10/04 09:56:32;;;;;;;14.88;6.72;;;;;;;;;;4977962;28;89802;-72
2022/10/04 09:59:20;;;;;;;14.60;6.97;;;;;;;;;;4992365;28;89325;-72
2022/10/04 10:01:59;;;;;;;12.57;6.65;;;;;;;;;;4978641;28;88889;-69
2022/10/04 10:04:44;;;;;;;25.42;6.85;;;;;;;;;;4980159;28;89076;-71
2022/10/04 10:07:29;;;;;;;14.27;6.93;;;;;;;;;;4982281;28;87419;-72
2022/10/04 10:16:03;;;;;;;11.65;6.70;;;;;;;;;;4983418;28;89235;-72
2022/10/04 10:18:39;;;;;;;13.75;6.57;;;;;;;;;;4971127;28;90682;-72
2022/10/04 10:21:17;;;;;;;11.75;6.53;;;;;;;;;;4978430;28;89957;-73
2022/10/04 10:23:55;;;;;;;17.52;6.57;;;;;;;;;;4978339;28;88003;-72
2022/10/04 10:26:23;;;;;;;10.77;6.55;;;;;;;;;;4987124;28;90199;-73
2022/10/04 10:29:08;;;;;;;10.93;6.25;;;;;;;;;;4988209;28;88892;-74
2022/10/04 10:31:57;;;;;;;19.85;6.90;;;;;;;;;;4997969;28;88894;-73
2022/10/04 10:34:26;;;;;;;13.00;6.75;;;;;;;;;;4998513;28;88445;-73
2022/10/04 10:37:08;;;;;;;15.00;6.78;;;;;;;;;;4977212;28;88921;-74
2022/10/04 10:39:41;;;;;;;19.30;6.85;;;;;;;;;;4985882;28;88747;-72
2022/10/04 10:42:08;;;;;;;16.52;6.75;;;;;;;;;;4997405;28;90631;-72
2022/10/04 10:44:34;;;;;;;15.55;5.90;;;;;;;;;;4989040;28;88028;-73
2022/10/04 10:47:19;;;;;;;10.75;5.55;;;;;;;;;;4975769;28;88111;-73
2022/10/04 10:49:51;;;;;;;16.75;5.72;;;;;;;;;;4990765;28;89040;-72
2022/10/04 10:52:36;;;;;;;13.00;5.30;;;;;;;;;;4978036;28;89810;-74
2022/10/04 10:55:21;;;;;;;12.63;5.18;;;;;;;;;;4976928;28;89069;-73
2022/10/04 10:57:53;;;;;;;12.10;5.15;;;;;;;;;;4973939;28;88138;-73
2022/10/04 11:00:29;;;;;;;13.23;5.15;;;;;;;;;;4995150;28;87692;-73
2022/10/04 11:03:16;;;;;;;10.23;5.65;;;;;;;;;;4994781;28;89579;-71
2022/10/04 11:05:51;;;;;;;11.98;5.50;;;;;;;;;;4996664;28;88503;-71
2022/10/04 11:08:36;;;;;;;9.77;5.60;;;;;;;;;;4997486;28;88804;-72
2022/10/04 11:11:02;;;;;;;9.77;4.50;;;;;;;;;;5001205;28;89369;-72
2022/10/04 11:13:34;;;;;;;11.82;4.88;;;;;;;;;;4992831;28;88945;-73
2022/10/04 11:16:00;;;;;;;10.23;4.97;;;;;;;;;;4977710;28;90195;-74
2022/10/04 11:18:27;;;;;;;13.82;5.35;;;;;;;;;;4980452;28;88087;-75
2022/10/04 11:21:08;;;;;;;12.60;5.65;;;;;;;;;;4980759;28;88778;-73
2022/10/04 11:23:34;;;;;;;14.05;4.82;;;;;;;;;;4978916;28;89208;-73
2022/10/04 11:26:01;;;;;;;9.98;4.60;;;;;;;;;;4995723;28;87937;-73
2022/10/04 11:28:28;;;;;;;19.25;4.45;;;;;;;;;;5000767;28;93444;-73
2022/10/04 11:30:57;;;;;;;13.73;3.97;;;;;;;;;;5001013;28;89997;-72
2022/10/04 11:33:42;;;;;;;13.07;4.20;;;;;;;;;;4975730;28;91457;-73
2022/10/04 11:36:14;;;;;;;15.40;4.80;;;;;;;;;;5000045;28;90656;-72
2022/10/04 11:38:56;;;;;;;9.73;4.38;;;;;;;;;;5000858;28;88051;-73
2022/10/04 11:41:22;;;;;;;7.78;4.53;;;;;;;;;;5000736;28;88767;-73
2022/10/04 11:44:03;;;;;;;14.52;4.32;;;;;;;;;;4983008;28;89312;-73
2022/10/04 11:46:59;;;;;;;10.18;4.45;;;;;;;;;;4973490;28;89582;-73
2022/10/04 11:49:37;;;;;;;10.32;4.50;;;;;;;;;;4895633;28;88684;-72
2022/10/04 11:52:16;;;;;;;11.57;5.32;;;;;;;;;;4893124;28;88278;-73
2022/10/04 11:55:02;;;;;;;15.85;4.90;;;;;;;;;;4885097;28;89274;-74
2022/10/04 11:57:31;;;;;;;12.80;4.85;;;;;;;;;;4846210;28;88820;-74
2022/10/04 12:00:01;;;;;;;14.20;5.38;;;;;;;;;;4901537;28;89789;-73
2022/10/04 12:02:27;;;;;;;16.42;5.00;;;;;;;;;;4883828;28;89583;-73
2022/10/04 12:05:03;;;;;;;10.00;4.38;;;;;;;;;;4898923;28;89000;-73
2022/10/04 12:07:33;;;;;;;16.45;5.18;;;;;;;;;;4895469;28;88644;-74
2022/10/04 12:10:12;;;;;;;11.20;4.70;;;;;;;;;;4895549;28;89916;-74
2022/10/04 12:12:48;;;;;;;9.63;4.18;;;;;;;;;;4881390;28;89938;-75
2022/10/04 12:15:24;;;;;;;12.93;4.53;;;;;;;;;;4885562;28;88612;-70
2022/10/04 12:18:00;;;;;;;13.90;4.60;;;;;;;;;;4894108;28;89836;-73
2022/10/04 12:20:27;;;;;;;10.43;4.28;;;;;;;;;;4898305;28;89417;-73
2022/10/04 12:23:04;;;;;;;14.07;4.47;;;;;;;;;;4900861;28;88161;-73
2022/10/04 12:25:37;;;;;;;10.73;4.65;;;;;;;;;;4925147;28;90976;-73
2022/10/04 12:28:10;;;;;;;12.30;3.85;;;;;;;;;;4980538;28;89032;-73
2022/10/04 12:30:40;;;;;;;12.88;3.65;;;;;;;;;;5000132;28;90005;-73
2022/10/04 12:33:13;;;;;;;10.00;3.45;;;;;;;;;;4978942;28;89986;-73
2022/10/04 12:35:57;;;;;;;13.55;4.28;;;;;;;;;;4998691;28;88225;-73
2022/10/04 12:38:33;;;;;;;12.50;4.13;;;;;;;;;;4994728;28;88911;-73
2022/10/04 12:41:15;;;;;;;14.30;4.13;;;;;;;;;;4978011;28;90393;-73
2022/10/04 12:43:48;;;;;;;10.60;4.00;;;;;;;;;;4999332;28;87860;-73
2022/10/04 12:46:22;;;;;;;12.30;4.35;;;;;;;;;;4991564;28;91953;-76
2022/10/04 12:49:01;;;;;;;10.02;3.53;;;;;;;;;;4977327;28;88129;-75
2022/10/04 12:51:34;;;;;;;8.88;3.92;;;;;;;;;;4978004;28;89291;-74
2022/10/04 12:54:09;;;;;;;11.18;4.00;;;;;;;;;;4979450;28;90043;-75
2022/10/04 12:56:36;;;;;;;7.22;3.55;;;;;;;;;;4998060;28;89152;-76
2022/10/04 12:59:05;;;;;;;11.00;3.65;;;;;;;;;;4998648;28;88469;-76
2022/10/04 13:01:40;;;;;;;7.72;3.20;;;;;;;;;;4999498;28;88987;-76
2022/10/04 13:04:12;;;;;;;8.02;3.80;;;;;;;;;;4990443;28;88089;-74
2022/10/04 13:06:48;;;;;;;12.85;4.07;;;;;;;;;;4978530;28;90107;-72
2022/10/04 13:09:15;;;;;;;4.70;2.90;;;;;;;;;;4968237;28;87860;-76
2022/10/04 13:11:52;;;;;;;8.68;3.55;;;;;;;;;;4976991;28;89155;-76
2022/10/04 13:14:18;;;;;;;10.85;3.58;;;;;;;;;;4977727;28;90046;-74
2022/10/04 13:17:00;;;;;;;7.55;3.42;;;;;;;;;;4978429;28;88797;-75
2022/10/04 13:19:52;;;;;;;7.47;3.30;;;;;;;;;;4977829;28;89269;-75
2022/10/04 13:22:32;;;;;;;13.68;3.88;;;;;;;;;;4978252;28;90034;-75
2022/10/04 13:25:25;;;;;;;12.63;4.53;;;;;;;;;;4979876;28;90764;-75
2022/10/04 13:28:05;;;;;;;12.60;4.10;;;;;;;;;;4978670;28;88842;-75
2022/10/04 13:30:37;;;;;;;9.57;3.65;;;;;;;;;;4981876;28;90137;-75
2022/10/04 13:33:23;;;;;;;16.60;3.55;;;;;;;;;;4975503;28;88094;-75
2022/10/04 13:35:57;;;;;;;8.38;3.25;;;;;;;;;;4987402;28;88146;-75
2022/10/04 13:38:33;;;;;;;14.25;3.70;;;;;;;;;;4997576;28;88435;-75
2022/10/04 13:41:06;;;;;;;9.23;3.65;;;;;;;;;;4989084;28;89836;-75
2022/10/04 13:43:40;;;;;;;9.20;3.90;;;;;;;;;;4991936;28;88670;-75
2022/10/04 13:46:25;;;;;;;11.38;3.65;;;;;;;;;;4980021;28;88069;-76
2022/10/04 13:49:10;;;;;;;9.18;3.88;;;;;;;;;;4988637;28;89140;-76
2022/10/04 13:51:45;;;;;;;10.20;3.50;;;;;;;;;;4988753;28;89499;-75
2022/10/04 13:57:10;;;;;;;11.23;4.15;;;;;;;;;;4996879;28;89018;-75
2022/10/04 13:59:41;;;;;;;8.73;3.72;;;;;;;;;;4998935;28;87982;-75
2022/10/04 14:02:20;;;;;;;8.68;3.33;;;;;;;;;;4987991;28;88801;-74
2022/10/04 14:04:52;;;;;;;14.65;4.22;;;;;;;;;;4974649;28;90026;-76
2022/10/04 14:07:37;;;;;;;11.45;3.67;;;;;;;;;;4977791;28;88032;-75
2022/10/04 14:10:09;;;;;;;7.60;3.83;;;;;;;;;;4967473;28;88884;-77
2022/10/04 14:12:35;;;;;;;8.80;3.85;;;;;;;;;;4970840;28;88973;-75
2022/10/04 14:15:04;;;;;;;5.65;3.53;;;;;;;;;;4977736;28;89043;-74
2022/10/04 14:17:40;;;;;;;9.85;4.05;;;;;;;;;;4981867;28;92818;-74
2022/10/04 14:20:25;;;;;;;8.75;3.83;;;;;;;;;;4975928;28;89647;-75
2022/10/04 14:22:59;;;;;;;12.85;4.28;;;;;;;;;;4986751;28;89816;-75
2022/10/04 14:25:38;;;;;;;11.05;4.03;;;;;;;;;;4959166;28;90080;-75
2022/10/04 14:28:23;;;;;;;9.07;3.75;;;;;;;;;;4974685;28;87939;-73
2022/10/04 14:30:55;;;;;;;15.45;3.88;;;;;;;;;;4978573;28;87964;-74
2022/10/04 14:33:25;;;;;;;8.43;4.10;;;;;;;;;;4990326;28;89029;-75
2022/10/04 14:36:00;;;;;;;9.50;4.50;;;;;;;;;;4994744;28;88782;-75
2022/10/04 14:38:27;;;;;;;10.40;4.55;;;;;;;;;;4998494;28;90447;-74
2022/10/04 14:40:56;;;;;;;12.15;4.47;;;;;;;;;;5000469;28;88992;-73
2022/10/04 14:43:28;;;;;;;16.98;4.60;;;;;;;;;;4983252;28;89925;-74
2022/10/04 14:45:57;;;;;;;12.05;4.43;;;;;;;;;;4983503;28;89019;-74
2022/10/04 14:48:41;;;;;;;7.72;4.50;;;;;;;;;;4978054;28;89197;-74
2022/10/04 14:51:08;;;;;;;15.73;4.32;;;;;;;;;;4995628;28;88118;-74
2022/10/04 14:53:40;;;;;;;11.65;4.20;;;;;;;;;;4983677;28;88544;-72
2022/10/04 14:56:08;;;;;;;11.60;4.95;;;;;;;;;;4976457;28;90529;-64
2022/10/04 14:58:56;;;;;;;14.20;4.53;;;;;;;;;;4977835;28;89634;-64
2022/10/04 15:01:25;;;;;;;12.40;4.70;;;;;;;;;;4978410;28;89681;-64
2022/10/04 15:04:01;;;;;;;11.63;4.57;;;;;;;;;;4997766;28;87966;-64
2022/10/04 15:06:35;;;;;;;12.05;3.88;;;;;;;;;;4981232;28;90031;-64
2022/10/04 15:09:09;;;;;;;12.10;4.15;;;;;;;;;;4977666;28;87953;-64
2022/10/04 15:11:41;;;;;;;10.77;4.05;;;;;;;;;;4977403;28;88810;-65
2022/10/04 15:14:35;;;;;;;9.15;3.40;;;;;;;;;;4991398;28;90055;-65
2022/10/04 15:17:25;;;;;;;7.53;3.50;;;;;;;;;;4973864;28;88118;-65
2022/10/04 15:20:15;;;;;;;6.47;3.73;;;;;;;;;;4970014;28;89897;-65
2022/10/04 15:22:41;;;;;;;;;;;;;;;;;;4987730;28;89977;-65
2022/10/04 15:25:26;;;;;;;9.70;3.38;;;;;;;;;;4991486;28;119054;-65
2022/10/04 15:27:55;;;;;;;7.88;3.53;;;;;;;;;;4976828;28;90000;-65